Seneca, IL (61360)

10:49 AM CDT on April 25, 2017 (GMT -0500)
Sohan Acres | | Change Station

Elev 527 ft 41.27 °N, 88.56 °W | Updated 7 seconds ago

Partly Cloudy
Partly Cloudy
72.7 °F
Feels Like 77 °F
N
2.5
Wind Variable Wind from SW
Gusts 4.9 mph

Today
High -- | Low -- °F
--% Chance of Precip.
Yesterday
High -- | Low -- °F
Precip. -- in
Pressure 29.68 in
Visibility 10.0 miles
Clouds Clear
Heat Index 77 °F
Dew Point 50 °F
Humidity 45%
Rainfall 0.00 in
Snow Depth Not available.
5:59 AM 7:45 PM
Waning Crescent, 1% visible
METAR KC09 251535Z AUTO 20009G16KT 10SM CLR 23/09 A2968 RMK AO2 T02290091
Pressure 29.68 in
Visibility 10.0 miles
Clouds Clear
Heat Index 77 °F
Dew Point 50 °F
Humidity 45%
Rainfall 0.00 in
Snow Depth Not available.
5:59 AM 7:45 PM
Waning Crescent, 1% visible
METAR KC09 251535Z AUTO 20009G16KT 10SM CLR 23/09 A2968 RMK AO2 T02290091

Get Severe Weather Alerts

Thanks for signing up!

Be on the lookout for a verification email in your inbox.

You'll start receiving the daily forecast at 8 AM.

×

10-Day Weather Forecast

Almanac

Astronomy

Apr. 25, 2017 Rise Set
Actual Time
Civil Twilight
Nautical Twilight
Astronomical Twilight
Moon
Length of Visible Light
Length of Day
Tomorrow will be .
, % of the Moon is Illuminated

Today's Extremes

State Highs State Lows

Community

WunderPhotos

WunderBlog® & News

Nearby

Air Quality

  Air Quality AQ Index Pollutant
Not available.

Snow Depth

Station Depth Elevation

Earthquake Activity

City Distance Mag. Time & Date
Minimum magnitude displayed is 2.5.

Coastal Water Temperatures

Place Temperature

Stations

Nearby Weather Stations

Station Location Temp. Windchill Dew Point Humidity Wind Precip. Elev Updated Type
                   

Watches & Warnings

There are currently no watches in effect.